createdAt,value
2022-08-02T00:02:24.074Z,21.58
2022-08-02T00:04:51.123Z,21.58
2022-08-02T00:07:18.099Z,21.59
2022-08-02T00:09:45.113Z,21.60
2022-08-02T00:12:12.415Z,21.58
2022-08-02T00:14:39.473Z,21.61
2022-08-02T00:17:06.351Z,21.60
2022-08-02T00:19:33.694Z,21.58
2022-08-02T00:22:00.417Z,21.54
2022-08-02T00:24:30.829Z,21.54
2022-08-02T00:26:58.355Z,21.53
2022-08-02T00:29:25.309Z,21.52
2022-08-02T00:31:52.030Z,21.48
2022-08-02T00:34:29.181Z,21.42
2022-08-02T00:36:58.835Z,21.40
2022-08-02T00:39:34.871Z,21.40
2022-08-02T00:42:03.012Z,21.44
2022-08-02T00:44:29.994Z,21.36
2022-08-02T00:46:56.774Z,21.41
2022-08-02T00:49:23.581Z,21.37
2022-08-02T00:51:51.567Z,21.40
2022-08-02T00:54:19.973Z,21.41
2022-08-02T00:56:50.061Z,21.41
2022-08-02T00:59:18.439Z,21.36
2022-08-02T01:01:55.666Z,21.33
2022-08-02T01:04:29.845Z,21.38
2022-08-02T01:07:12.475Z,21.35
2022-08-02T01:09:46.792Z,21.42
2022-08-02T01:12:14.381Z,21.41
2022-08-02T01:14:48.245Z,21.41
2022-08-02T01:17:36.870Z,21.41
2022-08-02T01:20:17.979Z,21.40
2022-08-02T01:23:23.400Z,21.36
2022-08-02T01:26:30.071Z,21.37
2022-08-02T01:29:17.067Z,21.35
2022-08-02T01:31:58.455Z,21.36
2022-08-02T01:34:40.150Z,21.35
2022-08-02T01:37:21.792Z,21.35
2022-08-02T01:40:00.941Z,21.38
2022-08-02T01:42:30.101Z,21.30
2022-08-02T01:44:58.970Z,21.30
2022-08-02T01:47:33.498Z,21.24
2022-08-02T01:50:02.418Z,21.22
2022-08-02T01:52:32.545Z,21.13
2022-08-02T01:55:07.003Z,21.15
2022-08-02T01:57:42.103Z,21.14
2022-08-02T02:00:10.957Z,21.06
2022-08-02T02:02:42.203Z,21.08
2022-08-02T02:05:16.231Z,21.05
2022-08-02T02:07:44.800Z,21.03
2022-08-02T02:10:15.578Z,21.01
2022-08-02T02:12:46.688Z,20.97
2022-08-02T02:15:14.259Z,20.94
2022-08-02T02:17:52.826Z,20.91
2022-08-02T02:20:34.060Z,20.93
2022-08-02T02:23:00.744Z,20.84
2022-08-02T02:25:35.663Z,20.94
2022-08-02T02:28:09.544Z,20.94
2022-08-02T02:30:39.142Z,20.91
2022-08-02T02:33:08.449Z,20.96
2022-08-02T02:35:37.912Z,20.93
2022-08-02T02:38:11.406Z,20.93
2022-08-02T02:40:40.380Z,20.90
2022-08-02T02:43:09.809Z,20.92
2022-08-02T02:45:38.316Z,20.91
2022-08-02T02:48:06.977Z,20.86
2022-08-02T02:50:34.963Z,20.86
2022-08-02T02:53:02.415Z,20.87
2022-08-02T02:55:29.905Z,20.92
2022-08-02T02:57:56.860Z,20.92
2022-08-02T03:00:44.181Z,20.95
2022-08-02T03:03:12.771Z,20.89
2022-08-02T03:05:39.485Z,20.89
2022-08-02T03:08:06.315Z,20.88
2022-08-02T03:10:33.846Z,20.93
2022-08-02T03:13:01.035Z,20.91
2022-08-02T03:15:29.207Z,20.88
2022-08-02T03:17:56.211Z,20.82
2022-08-02T03:20:23.026Z,20.87
2022-08-02T03:22:50.276Z,20.86
2022-08-02T03:25:17.966Z,20.86
2022-08-02T03:27:44.768Z,20.81
2022-08-02T03:30:12.906Z,20.80
2022-08-02T03:32:41.764Z,20.88
2022-08-02T03:35:11.058Z,20.85
2022-08-02T03:37:38.072Z,20.85
2022-08-02T03:40:08.586Z,20.76
2022-08-02T03:42:35.359Z,20.77
2022-08-02T03:45:08.500Z,20.82
2022-08-02T03:47:38.667Z,20.74
2022-08-02T03:50:07.677Z,20.78
2022-08-02T03:52:34.721Z,20.79
2022-08-02T03:55:01.785Z,20.75
2022-08-02T03:57:28.666Z,20.76
2022-08-02T03:59:55.323Z,20.76
2022-08-02T04:02:22.344Z,20.75
2022-08-02T04:04:49.273Z,20.74
2022-08-02T04:07:15.927Z,20.72
2022-08-02T04:10:03.202Z,20.70
2022-08-02T04:12:29.903Z,20.68
2022-08-02T04:14:57.933Z,20.63
2022-08-02T04:17:25.875Z,20.70
2022-08-02T04:20:01.954Z,20.70
2022-08-02T04:22:39.361Z,20.71
2022-08-02T04:25:09.534Z,20.69
2022-08-02T04:28:15.252Z,20.61
2022-08-02T04:30:32.606Z,20.59
2022-08-02T04:33:00.088Z,20.60
2022-08-02T04:35:27.010Z,20.53
2022-08-02T04:38:09.678Z,20.58
2022-08-02T04:40:38.268Z,20.57
2022-08-02T04:43:05.019Z,20.47
2022-08-02T04:45:32.498Z,20.41
2022-08-02T04:48:05.105Z,20.49
2022-08-02T04:50:32.569Z,20.48
2022-08-02T04:52:59.647Z,20.37
2022-08-02T04:55:28.947Z,20.37
2022-08-02T04:57:57.604Z,20.27
2022-08-02T05:00:26.573Z,20.28
2022-08-02T05:02:54.152Z,20.22
2022-08-02T05:05:20.969Z,20.12
2022-08-02T05:07:47.957Z,20.14
2022-08-02T05:10:15.151Z,20.08
2022-08-02T05:12:42.491Z,20.05
2022-08-02T05:15:12.792Z,20.01
2022-08-02T05:17:47.575Z,19.97
2022-08-02T05:20:20.314Z,19.94
2022-08-02T05:22:47.438Z,19.91
2022-08-02T05:25:14.912Z,19.77
2022-08-02T05:27:42.441Z,19.78
2022-08-02T05:30:09.900Z,19.71
2022-08-02T05:32:44.203Z,19.63
2022-08-02T05:35:11.831Z,19.70
2022-08-02T05:37:38.722Z,19.59
2022-08-02T05:40:12.842Z,19.64
2022-08-02T05:42:40.609Z,19.64
2022-08-02T05:45:08.281Z,19.68
2022-08-02T05:47:35.297Z,19.60
2022-08-02T05:50:02.812Z,19.57
2022-08-02T05:52:45.057Z,19.53
2022-08-02T05:55:17.297Z,19.46
2022-08-02T05:58:13.226Z,19.46
2022-08-02T06:00:42.125Z,19.41
2022-08-02T06:03:21.970Z,19.38
2022-08-02T06:06:12.534Z,19.37
2022-08-02T06:08:48.842Z,19.46
2022-08-02T06:11:21.041Z,19.42
2022-08-02T06:13:48.505Z,19.38
2022-08-02T06:16:15.652Z,19.33
2022-08-02T06:18:45.741Z,19.31
2022-08-02T06:22:31.550Z,19.28
2022-08-02T06:24:03.243Z,19.28
2022-08-02T06:26:30.259Z,19.28
2022-08-02T06:28:58.229Z,19.23
2022-08-02T08:24:12.873Z,20.15
2022-08-02T08:26:40.196Z,20.15
2022-08-02T08:29:07.636Z,19.80
2022-08-02T08:31:36.464Z,19.76
2022-08-02T08:34:04.000Z,19.73
2022-08-02T08:36:31.291Z,19.70
2022-08-02T08:38:57.924Z,19.57
2022-08-02T08:41:25.027Z,19.47
2022-08-02T08:43:56.846Z,19.57
2022-08-02T08:46:29.429Z,19.50
2022-08-02T08:49:03.351Z,19.60
2022-08-02T08:51:36.006Z,19.63
2022-08-02T08:54:05.007Z,19.58
2022-08-02T08:56:35.732Z,19.62
2022-08-02T08:59:04.615Z,19.64
2022-08-02T09:01:49.944Z,19.72
2022-08-02T09:04:18.565Z,19.62
2022-08-02T09:06:45.632Z,19.73
2022-08-02T09:09:12.300Z,19.73
2022-08-02T09:11:39.112Z,19.75
2022-08-02T09:14:06.289Z,19.69
2022-08-02T09:16:38.500Z,19.73
2022-08-02T09:19:26.529Z,19.72
2022-08-02T09:22:11.441Z,19.74
2022-08-02T09:24:42.786Z,19.69
2022-08-02T09:27:16.112Z,19.64
2022-08-02T09:30:13.344Z,19.59
2022-08-02T09:32:49.841Z,19.56
2022-08-02T09:36:06.384Z,19.55
2022-08-02T09:38:20.904Z,19.54
2022-08-02T09:40:47.629Z,19.50
2022-08-02T09:43:14.433Z,19.52
2022-08-02T09:45:41.515Z,19.57
2022-08-02T09:48:09.595Z,19.60
2022-08-02T09:50:38.300Z,19.67
2022-08-02T09:53:05.906Z,19.71
2022-08-02T09:55:32.643Z,19.68
2022-08-02T09:58:17.304Z,19.69
2022-08-02T10:00:59.097Z,19.78
2022-08-02T10:03:35.109Z,19.77
2022-08-02T10:06:04.518Z,19.74
2022-08-02T10:08:33.771Z,19.78
2022-08-02T10:11:01.887Z,19.83
2022-08-02T10:13:29.524Z,19.82
2022-08-02T10:15:57.287Z,19.92
2022-08-02T10:18:38.257Z,19.97
2022-08-02T10:21:12.550Z,20.00
2022-08-02T10:23:40.759Z,20.05
2022-08-02T10:26:08.903Z,20.01
2022-08-02T10:28:36.535Z,19.94
2022-08-02T10:31:07.096Z,19.99
2022-08-02T10:33:37.494Z,20.04
2022-08-02T10:36:07.836Z,20.04
2022-08-02T10:38:36.102Z,20.05
2022-08-02T10:41:03.560Z,20.05
2022-08-02T10:43:36.735Z,20.05
2022-08-02T10:46:23.555Z,20.10
2022-08-02T10:49:18.539Z,20.12
2022-08-02T10:52:02.133Z,20.16
2022-08-02T10:54:34.136Z,20.12
2022-08-02T10:57:01.759Z,20.10
2022-08-02T10:59:36.711Z,20.15
2022-08-02T11:02:06.341Z,20.21
2022-08-02T11:04:42.224Z,20.24
2022-08-02T11:07:20.607Z,20.16
2022-08-02T11:09:49.950Z,20.27
2022-08-02T11:12:20.915Z,20.28
2022-08-02T11:15:08.197Z,20.21
2022-08-02T11:17:56.174Z,20.26
2022-08-02T11:20:24.294Z,20.17
2022-08-02T11:22:53.235Z,20.04
2022-08-02T11:25:22.872Z,19.94
2022-08-02T11:27:58.989Z,19.89
2022-08-02T11:30:27.487Z,19.78
2022-08-02T11:32:59.100Z,19.61
2022-08-02T11:35:53.008Z,19.70
2022-08-02T11:38:21.241Z,19.68
2022-08-02T11:40:49.424Z,19.65
2022-08-02T11:43:22.027Z,19.62
2022-08-02T11:45:52.325Z,19.61
2022-08-02T11:48:37.585Z,19.59
2022-08-02T11:51:10.433Z,19.64
2022-08-02T11:53:44.123Z,19.66
2022-08-02T11:56:11.346Z,19.66
2022-08-02T11:58:39.461Z,19.64
2022-08-02T12:01:08.852Z,19.62
2022-08-02T12:03:37.741Z,19.60
2022-08-02T12:06:16.219Z,19.58
2022-08-02T12:08:54.575Z,19.56
2022-08-02T12:11:21.766Z,19.66
2022-08-02T12:13:56.590Z,19.72
2022-08-02T12:16:43.343Z,19.77
2022-08-02T12:19:19.794Z,19.82
2022-08-02T12:21:47.254Z,19.78
2022-08-02T12:24:28.450Z,19.88
2022-08-02T12:26:55.288Z,19.93
2022-08-02T12:29:55.629Z,19.95
2022-08-02T12:32:26.488Z,19.98
2022-08-02T12:35:06.645Z,20.00
2022-08-02T12:37:33.960Z,20.03
2022-08-02T12:40:26.192Z,19.93
2022-08-02T12:42:56.469Z,20.02
2022-08-02T12:45:24.008Z,19.96
2022-08-02T12:47:53.535Z,20.01
2022-08-02T12:50:32.568Z,19.95
2022-08-02T12:53:12.678Z,20.03
2022-08-02T12:55:59.480Z,20.04
2022-08-02T12:58:46.052Z,20.07
2022-08-02T13:01:20.101Z,20.07
2022-08-02T13:04:11.854Z,20.08
2022-08-02T13:06:49.677Z,20.03
2022-08-02T13:09:17.518Z,20.11
2022-08-02T13:11:45.016Z,20.11
2022-08-02T13:14:12.913Z,20.10
2022-08-02T13:16:40.937Z,20.03
2022-08-02T13:19:07.704Z,20.01
2022-08-02T13:21:41.090Z,20.02
2022-08-02T13:24:38.302Z,19.99
2022-08-02T13:27:08.493Z,19.96
2022-08-02T13:29:37.412Z,19.90
2022-08-02T13:32:04.533Z,19.82
2022-08-02T13:34:31.234Z,19.85
2022-08-02T13:36:58.775Z,19.77
2022-08-02T13:39:25.439Z,19.83
2022-08-02T13:41:52.230Z,19.77
2022-08-02T13:44:19.372Z,19.76
2022-08-02T13:46:46.327Z,19.73
2022-08-02T13:49:18.914Z,19.69
2022-08-02T13:51:47.599Z,19.66
2022-08-02T13:54:15.431Z,19.62
2022-08-02T13:56:42.566Z,19.59
2022-08-02T13:59:53.512Z,19.49
2022-08-02T14:01:58.869Z,19.53
2022-08-02T14:04:27.111Z,19.49
2022-08-02T14:06:54.175Z,19.44
2022-08-02T14:09:20.989Z,19.38
2022-08-02T14:11:48.580Z,19.36
2022-08-02T14:14:17.364Z,19.33
2022-08-02T14:16:45.822Z,19.28
2022-08-02T14:19:16.539Z,19.20
2022-08-02T14:21:46.444Z,19.16
2022-08-02T14:24:19.376Z,19.18
2022-08-02T14:26:47.639Z,19.16
2022-08-02T14:29:16.483Z,19.15
2022-08-02T14:31:44.963Z,19.11
2022-08-02T14:34:13.489Z,19.07
2022-08-02T14:36:40.973Z,19.02
2022-08-02T14:39:07.997Z,18.94
2022-08-02T14:41:59.777Z,18.90
2022-08-02T14:44:23.688Z,18.85
2022-08-02T14:46:51.547Z,18.84
2022-08-02T14:49:25.357Z,18.83
2022-08-02T14:51:57.589Z,18.78
2022-08-02T14:54:31.440Z,18.77
2022-08-02T14:57:00.602Z,18.75
2022-08-02T14:59:27.950Z,18.68
2022-08-02T15:01:55.201Z,18.62
2022-08-02T15:04:22.379Z,18.46
2022-08-02T15:06:49.078Z,18.45
2022-08-02T15:09:15.801Z,18.34
2022-08-02T15:11:46.929Z,18.36
2022-08-02T15:14:26.029Z,18.32
2022-08-02T15:16:57.641Z,18.35
2022-08-02T15:19:55.932Z,18.33
2022-08-02T15:22:16.481Z,18.30
2022-08-02T15:24:47.368Z,18.28
2022-08-02T15:27:15.999Z,18.30
2022-08-02T15:29:44.997Z,18.30
2022-08-02T15:32:13.086Z,18.25
2022-08-02T15:34:40.623Z,18.32
2022-08-02T15:37:07.480Z,18.36
2022-08-02T15:39:34.335Z,18.38
2022-08-02T15:42:01.397Z,18.39
2022-08-02T15:44:28.345Z,18.38
2022-08-02T15:46:55.710Z,18.38
2022-08-02T15:49:24.370Z,18.39
2022-08-02T15:51:52.506Z,18.40
2022-08-02T15:54:19.348Z,18.34
2022-08-02T15:56:46.549Z,18.44
2022-08-02T15:59:13.374Z,18.45
2022-08-02T16:01:43.448Z,18.47
2022-08-02T16:04:14.650Z,18.49
2022-08-02T16:06:41.636Z,18.51
2022-08-02T16:09:08.803Z,18.44
2022-08-02T16:11:36.134Z,18.52
2022-08-02T16:14:03.897Z,18.53
2022-08-02T16:16:32.678Z,18.54
2022-08-02T16:19:47.552Z,18.54
2022-08-02T16:21:48.312Z,18.49
2022-08-02T16:24:15.462Z,18.51
2022-08-02T16:26:42.600Z,18.47
2022-08-02T16:29:09.446Z,18.45
2022-08-02T16:31:41.574Z,18.41
2022-08-02T16:34:09.754Z,18.39
2022-08-02T16:36:37.503Z,18.36
2022-08-02T16:39:05.083Z,18.28
2022-08-02T16:44:27.671Z,18.31
2022-08-02T16:50:04.815Z,18.32
2022-08-02T16:52:31.637Z,18.34
2022-08-02T16:54:59.195Z,18.36
2022-08-02T16:57:42.538Z,18.38
2022-08-02T17:00:12.947Z,18.42
2022-08-02T17:02:40.025Z,18.46
2022-08-02T17:05:13.500Z,18.49
2022-08-02T17:08:07.694Z,18.51
2022-08-02T17:10:33.559Z,18.49
2022-08-02T17:13:10.855Z,18.56
2022-08-02T17:16:16.209Z,18.53
2022-08-02T17:18:28.852Z,18.55
2022-08-02T17:20:56.349Z,18.56
2022-08-02T17:23:23.071Z,18.67
2022-08-02T17:26:10.027Z,18.68
2022-08-02T17:28:56.558Z,18.69
2022-08-02T17:31:29.410Z,18.69
2022-08-02T17:33:56.878Z,18.68
2022-08-02T17:36:25.841Z,18.65
2022-08-02T17:38:53.062Z,18.64
2022-08-02T17:41:19.926Z,18.61
2022-08-02T17:44:08.568Z,18.62
2022-08-02T17:46:35.635Z,18.62
2022-08-02T17:49:16.807Z,18.53
2022-08-02T17:52:47.987Z,18.60
2022-08-02T17:54:31.572Z,18.60
2022-08-02T17:56:58.348Z,18.62
2022-08-02T17:59:31.166Z,18.62
2022-08-02T18:02:11.259Z,18.55
2022-08-02T18:04:39.013Z,18.59
2022-08-02T18:07:09.909Z,18.61
2022-08-02T18:09:37.493Z,18.62
2022-08-02T18:12:13.961Z,18.65
2022-08-02T18:14:48.877Z,18.67
2022-08-02T18:17:16.871Z,18.63
2022-08-02T18:19:56.706Z,18.67
2022-08-02T18:22:31.057Z,18.66
2022-08-02T18:24:58.412Z,18.62
2022-08-02T18:27:25.154Z,18.59
2022-08-02T18:30:00.424Z,18.62
2022-08-02T18:33:56.090Z,18.62
2022-08-02T18:35:19.113Z,18.61
2022-08-02T18:37:56.648Z,18.60
2022-08-02T18:40:24.629Z,18.55
2022-08-02T18:42:51.475Z,18.55
2022-08-02T18:45:19.872Z,18.53
2022-08-02T18:47:50.794Z,18.59
2022-08-02T18:50:18.846Z,18.56
2022-08-02T18:52:47.635Z,18.50
2022-08-02T18:55:17.435Z,18.42
2022-08-02T18:58:19.655Z,18.48
2022-08-02T19:00:51.489Z,18.46
2022-08-02T19:03:19.678Z,18.45
2022-08-02T19:05:53.134Z,18.39
2022-08-02T19:08:26.298Z,18.40
2022-08-02T19:10:56.159Z,18.38
2022-08-02T19:13:24.664Z,18.37
2022-08-02T19:15:52.859Z,18.37
2022-08-02T19:18:19.691Z,18.37
2022-08-02T19:20:57.179Z,18.36
2022-08-02T19:23:29.569Z,18.32
2022-08-02T19:25:57.043Z,18.37
2022-08-02T19:28:26.127Z,18.38
2022-08-02T19:30:57.029Z,18.32
2022-08-02T19:34:06.174Z,18.34
2022-08-02T19:36:11.960Z,18.38
2022-08-02T19:38:43.730Z,18.39
2022-08-02T19:41:13.230Z,18.39
2022-08-02T19:44:26.416Z,18.39
2022-08-02T19:46:27.200Z,18.34
2022-08-02T19:48:54.293Z,18.39
2022-08-02T19:51:49.498Z,18.32
2022-08-02T19:54:10.589Z,18.38
2022-08-02T19:56:40.269Z,18.40
2022-08-02T19:59:12.951Z,18.40
2022-08-02T20:01:44.830Z,18.37
2022-08-02T20:04:28.397Z,18.40
2022-08-02T20:06:55.287Z,18.42
2022-08-02T20:09:33.289Z,18.36
2022-08-02T20:12:14.670Z,18.42
2022-08-02T20:14:50.940Z,18.46
2022-08-02T20:17:20.729Z,18.46
2022-08-02T20:19:47.828Z,18.47
2022-08-02T20:22:16.146Z,18.49
2022-08-02T20:24:43.683Z,18.44
2022-08-02T20:27:19.365Z,18.49
2022-08-02T20:29:50.983Z,18.48
2022-08-02T20:32:23.872Z,18.46
2022-08-02T20:34:52.793Z,18.50
2022-08-02T20:37:59.497Z,18.49
2022-08-02T20:40:08.333Z,18.51
2022-08-02T20:42:35.585Z,18.51
2022-08-02T20:45:03.340Z,18.51
2022-08-02T20:47:39.992Z,18.46
2022-08-02T20:50:31.658Z,18.54
2022-08-02T20:53:04.179Z,18.53
2022-08-02T20:55:32.081Z,18.55
2022-08-02T20:58:04.508Z,18.54
2022-08-02T21:00:31.968Z,18.50
2022-08-02T21:03:02.988Z,18.54
2022-08-02T21:05:43.721Z,18.55
2022-08-02T21:08:21.441Z,18.55
2022-08-02T21:10:50.503Z,18.56
2022-08-02T21:13:46.257Z,18.50
2022-08-02T21:16:18.300Z,18.56
2022-08-02T21:18:46.182Z,18.56
2022-08-02T21:21:14.498Z,18.49
2022-08-02T21:23:48.959Z,18.52
2022-08-02T21:26:25.727Z,18.48
2022-08-02T21:28:55.709Z,18.56
2022-08-02T21:31:23.000Z,18.55
2022-08-02T21:33:57.251Z,18.55
2022-08-02T21:36:30.627Z,18.53
2022-08-02T21:39:05.150Z,18.54
2022-08-02T21:41:39.952Z,18.52
2022-08-02T21:44:17.825Z,18.42
2022-08-02T21:46:50.436Z,18.44
2022-08-02T21:49:18.801Z,18.42
2022-08-02T21:51:49.427Z,18.39
2022-08-02T21:57:06.556Z,18.39
2022-08-02T21:59:35.096Z,18.37
2022-08-02T22:02:02.051Z,18.38
2022-08-02T22:04:29.139Z,18.38
2022-08-02T22:06:56.807Z,18.38
2022-08-02T22:09:44.484Z,18.36
2022-08-02T22:12:12.631Z,18.33
2022-08-02T22:14:43.863Z,18.38
2022-08-02T22:17:17.117Z,18.37
2022-08-02T22:19:54.068Z,18.41
2022-08-02T22:22:28.416Z,18.42
2022-08-02T22:24:56.499Z,18.42
2022-08-02T22:28:13.363Z,18.44
2022-08-02T22:30:11.482Z,18.44
2022-08-02T22:32:57.001Z,18.46
2022-08-02T22:35:23.783Z,18.51
2022-08-02T22:38:16.632Z,18.51
2022-08-02T22:40:37.749Z,18.46
2022-08-02T22:43:06.811Z,18.53
2022-08-02T22:45:37.439Z,18.54
2022-08-02T22:48:05.001Z,18.53
2022-08-02T22:50:32.338Z,18.45
2022-08-02T22:52:59.298Z,18.51
2022-08-02T22:55:32.728Z,18.48
2022-08-02T22:57:59.752Z,18.49
2022-08-02T22:58:34.210Z,18.26
2022-08-02T22:58:34.851Z,18.31
2022-08-02T22:59:03.801Z,18.40
2022-08-02T23:00:26.725Z,18.42
2022-08-02T23:02:53.451Z,18.47
2022-08-02T23:05:21.638Z,18.39
2022-08-02T23:07:48.306Z,18.47
2022-08-02T23:10:15.122Z,18.45
2022-08-02T23:12:42.349Z,18.45
2022-08-02T23:15:09.877Z,18.46
2022-08-02T23:17:55.038Z,18.45
2022-08-02T23:20:22.675Z,18.43
2022-08-02T23:22:49.389Z,18.42
2022-08-02T23:25:16.175Z,18.42
2022-08-02T23:27:50.491Z,18.41
2022-08-02T23:30:18.951Z,18.34
2022-08-02T23:32:46.833Z,18.39
2022-08-02T23:35:16.986Z,18.41
2022-08-02T23:37:59.759Z,18.38
2022-08-02T23:40:39.700Z,18.37
2022-08-02T23:43:13.522Z,18.39
2022-08-02T23:45:44.392Z,18.41
2022-08-02T23:48:11.235Z,18.41
2022-08-02T23:50:38.027Z,18.36
2022-08-02T23:53:05.046Z,18.42
2022-08-02T23:55:31.702Z,18.44
2022-08-02T23:57:58.411Z,18.45
